Time;durP1;ratioP1;P1;durP2;ratioP2;P2;SDS_P1;SDS_P2;PMS_P1;PMS_P2;Temp;Humidity;BMP_temperature;BMP_pressure;BME280_temperature;BME280_humidity;BME280_pressure;Samples;Min_cycle;Max_cycle;Signal;HPM_P1;HPM_P2
2024/03/03 00:01:37;;;;;;;30.53;23.10;;;9.90;99.90;;;;;;5055993;28;20397;-71
2024/03/03 00:04:03;;;;;;;33.60;25.97;;;9.80;99.90;;;;;;5055783;28;20448;-72
2024/03/03 00:06:28;;;;;;;30.37;23.20;;;9.50;99.90;;;;;;5092838;28;20178;-71
2024/03/03 00:08:56;;;;;;;36.13;26.77;;;9.70;99.90;;;;;;5096129;28;20619;-72
2024/03/03 00:11:21;;;;;;;36.93;23.40;;;9.80;99.90;;;;;;5096008;28;20169;-72
2024/03/03 00:13:47;;;;;;;37.53;26.77;;;9.90;99.90;;;;;;5095893;28;20404;-71
2024/03/03 00:16:13;;;;;;;30.60;22.67;;;9.80;99.90;;;;;;5079854;28;20208;-73
2024/03/03 00:18:38;;;;;;;39.00;27.60;;;9.70;99.90;;;;;;5075834;28;20270;-72
2024/03/03 00:21:05;;;;;;;40.97;28.80;;;9.60;99.90;;;;;;5075884;28;20164;-73
2024/03/03 00:23:30;;;;;;;38.03;26.50;;;9.70;99.90;;;;;;5075392;28;20214;-73
2024/03/03 00:25:56;;;;;;;36.27;25.67;;;9.70;99.90;;;;;;5089014;28;20460;-72
2024/03/03 00:28:22;;;;;;;32.60;25.43;;;9.70;99.90;;;;;;5095890;28;20174;-70
2024/03/03 00:30:48;;;;;;;40.00;26.93;;;9.60;99.90;;;;;;5095532;28;20903;-72
2024/03/03 00:33:14;;;;;;;38.50;29.80;;;9.60;99.90;;;;;;5095493;28;20163;-70
2024/03/03 00:35:40;;;;;;;34.70;24.80;;;9.60;99.90;;;;;;5083969;28;21032;-71
2024/03/03 00:38:06;;;;;;;36.97;27.40;;;9.70;99.90;;;;;;5075062;28;20446;-72
2024/03/03 00:40:32;;;;;;;37.83;27.77;;;9.70;99.90;;;;;;5075094;28;20412;-72
2024/03/03 00:42:58;;;;;;;37.03;25.83;;;9.70;99.90;;;;;;5075371;28;20190;-71
2024/03/03 00:45:24;;;;;;;38.10;28.00;;;9.70;99.90;;;;;;5082509;28;20527;-71
2024/03/03 00:47:49;;;;;;;34.33;25.00;;;9.60;99.90;;;;;;5093961;28;20502;-71
2024/03/03 00:50:15;;;;;;;39.13;27.57;;;9.70;99.90;;;;;;5093224;28;20199;-71
2024/03/03 00:52:40;;;;;;;34.83;26.23;;;9.80;99.90;;;;;;5095322;28;20256;-71
2024/03/03 00:55:07;;;;;;;37.73;28.93;;;9.90;99.90;;;;;;5088924;28;20664;-72
2024/03/03 00:57:32;;;;;;;38.03;25.27;;;9.70;99.90;;;;;;5075020;28;20262;-71
2024/03/03 00:59:58;;;;;;;36.33;26.73;;;9.80;99.90;;;;;;5073578;28;20557;-72
2024/03/03 01:02:24;;;;;;;32.73;25.03;;;9.90;99.90;;;;;;5075014;28;20226;-72
2024/03/03 01:04:50;;;;;;;37.17;28.43;;;9.80;99.90;;;;;;5077104;28;20477;-72
2024/03/03 01:07:16;;;;;;;42.73;28.77;;;9.80;99.90;;;;;;5094999;28;20163;-72
2024/03/03 01:09:41;;;;;;;40.30;28.00;;;9.80;99.90;;;;;;5095069;28;20407;-73
2024/03/03 01:12:07;;;;;;;38.17;27.03;;;9.80;99.90;;;;;;5094827;28;20167;-72
2024/03/03 01:14:32;;;;;;;38.00;27.97;;;9.80;99.90;;;;;;5093514;28;20217;-71
2024/03/03 01:16:58;;;;;;;37.17;25.40;;;9.80;99.90;;;;;;5074494;28;20656;-71
2024/03/03 01:19:24;;;;;;;35.87;27.53;;;9.90;99.90;;;;;;5074897;28;20204;-71
2024/03/03 01:21:49;;;;;;;40.33;28.97;;;9.90;99.90;;;;;;5074546;28;20643;-70
2024/03/03 01:24:15;;;;;;;41.23;27.70;;;9.90;99.90;;;;;;5074631;28;20198;-71
2024/03/03 01:26:40;;;;;;;36.10;26.57;;;9.80;99.90;;;;;;5093539;28;20178;-72
2024/03/03 01:29:06;;;;;;;35.53;27.03;;;9.70;99.90;;;;;;5094457;28;20177;-71
2024/03/03 01:31:32;;;;;;;37.40;28.57;;;9.80;99.90;;;;;;5094540;28;20242;-72
2024/03/03 01:33:57;;;;;;;33.30;24.50;;;9.70;99.90;;;;;;5094768;28;20168;-72
2024/03/03 01:36:23;;;;;;;37.87;27.77;;;9.80;99.90;;;;;;5079983;28;20452;-72
2024/03/03 01:38:49;;;;;;;35.80;26.07;;;9.80;99.90;;;;;;5075273;28;20175;-72
2024/03/03 01:41:14;;;;;;;35.33;27.17;;;9.60;99.90;;;;;;5074980;28;20180;-72
2024/03/03 01:43:41;;;;;;;32.43;25.43;;;9.70;99.90;;;;;;5074825;28;20256;-72
2024/03/03 01:46:09;;;;;;;37.10;25.10;;;9.70;99.90;;;;;;5088770;28;20286;-72
2024/03/03 01:48:36;;;;;;;33.47;25.17;;;9.60;99.90;;;;;;5094511;28;20413;-72
2024/03/03 01:51:03;;;;;;;36.63;26.73;;;9.60;99.90;;;;;;5084416;28;20422;-71
2024/03/03 01:53:30;;;;;;;35.97;26.83;;;9.50;99.90;;;;;;5074243;28;20506;-72
2024/03/03 01:55:56;;;;;;;36.60;25.90;;;9.30;99.90;;;;;;5081279;28;20448;-72
2024/03/03 01:58:21;;;;;;;37.17;27.70;;;9.30;99.90;;;;;;5094411;28;20403;-72
2024/03/03 02:00:48;;;;;;;35.10;26.80;;;9.20;99.90;;;;;;5091802;28;20427;-71
2024/03/03 02:03:14;;;;;;;43.30;30.03;;;9.20;99.90;;;;;;5094176;28;20173;-69
2024/03/03 02:05:40;;;;;;;39.20;29.20;;;9.00;99.90;;;;;;5084292;28;20486;-71
2024/03/03 02:08:06;;;;;;;45.00;29.27;;;8.80;99.90;;;;;;5070381;28;20422;-71
2024/03/03 02:10:33;;;;;;;37.53;27.20;;;8.90;99.90;;;;;;5073751;28;20398;-72
2024/03/03 02:12:58;;;;;;;34.50;27.03;;;8.90;99.90;;;;;;5072344;28;20514;-72
2024/03/03 02:15:24;;;;;;;38.20;28.10;;;8.90;99.90;;;;;;5080756;28;20641;-72
2024/03/03 02:17:51;;;;;;;44.40;31.27;;;9.00;99.90;;;;;;5093601;28;20177;-71
2024/03/03 02:20:17;;;;;;;39.30;28.50;;;9.00;99.90;;;;;;5093648;28;20168;-72
2024/03/03 02:22:42;;;;;;;37.20;26.70;;;8.90;99.90;;;;;;5093742;28;20823;-71
2024/03/03 02:25:09;;;;;;;40.20;26.23;;;8.70;99.90;;;;;;5088300;28;20298;-72
2024/03/03 02:27:36;;;;;;;41.10;28.00;;;8.80;99.90;;;;;;5073415;28;20204;-71
2024/03/03 02:30:05;;;;;;;36.77;27.60;;;8.80;99.90;;;;;;5073647;28;20815;-72
2024/03/03 02:32:30;;;;;;;41.90;29.40;;;8.80;99.90;;;;;;5073005;28;20415;-71
2024/03/03 02:34:56;;;;;;;39.00;28.30;;;8.60;99.90;;;;;;5076150;28;20454;-71
2024/03/03 02:37:22;;;;;;;36.60;26.60;;;8.70;99.90;;;;;;5092263;28;20183;-71
2024/03/03 02:39:48;;;;;;;42.20;27.80;;;8.70;99.90;;;;;;5093442;28;20402;-71
2024/03/03 02:42:13;;;;;;;41.67;29.57;;;8.70;99.90;;;;;;5093218;28;20341;-72
2024/03/03 02:44:39;;;;;;;39.87;28.27;;;8.60;99.90;;;;;;5092250;28;20204;-72
2024/03/03 02:47:04;;;;;;;41.93;29.70;;;8.60;99.90;;;;;;5073175;28;20486;-73
2024/03/03 02:49:30;;;;;;;40.03;27.33;;;8.60;99.90;;;;;;5073265;28;20242;-71
2024/03/03 02:51:56;;;;;;;38.57;27.37;;;8.60;99.90;;;;;;5072850;28;20178;-70
2024/03/03 02:54:22;;;;;;;39.83;28.87;;;8.50;99.90;;;;;;5072569;28;20189;-70
2024/03/03 02:56:48;;;;;;;38.87;26.67;;;8.40;99.90;;;;;;5091232;28;20542;-70
2024/03/03 02:59:14;;;;;;;36.80;26.67;;;8.40;99.90;;;;;;5092907;28;20407;-69
2024/03/03 03:01:39;;;;;;;39.60;27.97;;;8.50;99.90;;;;;;5092818;28;20245;-71
2024/03/03 03:04:05;;;;;;;41.80;30.33;;;8.60;99.90;;;;;;5092744;28;20422;-71
2024/03/03 03:06:30;;;;;;;39.03;27.80;;;8.50;99.90;;;;;;5076831;28;20179;-72
2024/03/03 03:08:56;;;;;;;45.53;30.90;;;8.50;99.90;;;;;;5072525;28;20196;-71
2024/03/03 03:11:22;;;;;;;41.37;29.20;;;8.50;99.90;;;;;;5073014;28;20307;-70
2024/03/03 03:13:47;;;;;;;41.90;29.93;;;8.50;99.90;;;;;;5072424;28;20636;-72
2024/03/03 03:16:13;;;;;;;44.27;28.87;;;8.40;99.90;;;;;;5086094;28;20619;-70
2024/03/03 03:18:39;;;;;;;41.60;29.57;;;8.40;99.90;;;;;;5092720;28;20172;-71
2024/03/03 03:21:08;;;;;;;37.07;28.00;;;8.40;99.90;;;;;;5092694;28;20511;-71
2024/03/03 03:23:34;;;;;;;38.67;28.37;;;8.30;99.90;;;;;;5092744;28;20251;-71
2024/03/03 03:26:00;;;;;;;44.23;30.40;;;8.30;99.90;;;;;;5081153;28;20491;-72
2024/03/03 03:28:25;;;;;;;37.87;28.10;;;8.10;99.90;;;;;;5072493;28;20413;-71
2024/03/03 03:30:51;;;;;;;46.03;31.50;;;8.10;99.90;;;;;;5072518;28;20417;-71
2024/03/03 03:33:17;;;;;;;46.80;31.80;;;8.10;99.90;;;;;;5072593;28;20644;-71
2024/03/03 03:35:42;;;;;;;45.00;30.20;;;8.30;99.90;;;;;;5081169;28;20575;-72
2024/03/03 03:38:08;;;;;;;42.63;29.40;;;8.30;99.90;;;;;;5092651;28;20166;-71
2024/03/03 03:40:33;;;;;;;44.23;29.90;;;8.30;99.90;;;;;;5092389;28;20176;-71
2024/03/03 03:42:59;;;;;;;42.20;29.97;;;8.20;99.90;;;;;;5092607;28;20210;-72
2024/03/03 03:45:25;;;;;;;48.53;32.80;;;8.20;99.90;;;;;;5086233;28;20296;-72
2024/03/03 03:47:50;;;;;;;43.00;31.10;;;8.20;99.90;;;;;;5072413;28;20170;-72
2024/03/03 03:50:16;;;;;;;38.87;28.20;;;8.20;99.90;;;;;;5070860;28;20285;-70
2024/03/03 03:52:42;;;;;;;46.30;31.43;;;8.30;99.90;;;;;;5072195;28;20189;-72
2024/03/03 03:55:08;;;;;;;46.50;33.00;;;8.20;99.90;;;;;;5075671;28;20570;-72
2024/03/03 03:57:33;;;;;;;39.00;28.17;;;8.10;99.90;;;;;;5083498;28;20199;-71
2024/03/03 03:59:59;;;;;;;55.47;33.60;;;8.00;99.90;;;;;;5072508;28;20891;-72
2024/03/03 04:02:27;;;;;;;43.30;31.80;;;8.00;99.90;;;;;;5074794;28;20176;-71
2024/03/03 04:04:52;;;;;;;50.13;32.70;;;8.00;99.90;;;;;;5068651;28;20534;-73
2024/03/03 04:07:18;;;;;;;45.17;32.23;;;8.00;99.90;;;;;;5092571;28;20437;-72
2024/03/03 04:09:44;;;;;;;39.97;30.67;;;7.90;99.90;;;;;;5093082;28;20528;-72
2024/03/03 04:12:09;;;;;;;50.60;34.43;;;7.90;99.90;;;;;;5092588;28;20177;-72
2024/03/03 04:14:35;;;;;;;44.77;31.90;;;7.90;99.90;;;;;;5092360;28;20190;-72
2024/03/03 04:17:01;;;;;;;49.03;33.33;;;7.80;99.90;;;;;;5073247;28;20219;-72
2024/03/03 04:19:26;;;;;;;44.03;31.47;;;7.70;99.90;;;;;;5072439;28;20185;-72
2024/03/03 04:21:52;;;;;;;46.10;32.40;;;7.70;99.90;;;;;;5072195;28;20457;-72
2024/03/03 04:24:17;;;;;;;40.97;29.57;;;7.70;99.90;;;;;;5072681;28;20205;-72
2024/03/03 04:26:43;;;;;;;41.87;29.63;;;7.80;99.90;;;;;;5092701;28;20216;-71
2024/03/03 04:29:09;;;;;;;46.07;31.67;;;7.80;99.90;;;;;;5096065;28;20168;-72
2024/03/03 04:31:42;;;;;;;42.60;30.67;;;7.80;99.90;;;;;;5094312;28;20174;-72
2024/03/03 04:34:08;;;;;;;46.00;29.97;;;7.80;99.90;;;;;;5095983;28;20199;-72
2024/03/03 04:36:34;;;;;;;51.60;34.43;;;7.80;99.90;;;;;;5080510;28;20458;-72
2024/03/03 04:38:59;;;;;;;41.53;29.10;;;7.80;99.90;;;;;;5075411;28;20411;-72
2024/03/03 04:41:25;;;;;;;41.00;29.20;;;7.90;99.90;;;;;;5075627;28;20168;-72
2024/03/03 04:43:50;;;;;;;40.90;28.73;;;7.90;99.90;;;;;;5075144;28;20180;-72
2024/03/03 04:46:16;;;;;;;37.53;26.10;;;7.90;99.90;;;;;;5087540;28;20176;-72
2024/03/03 04:48:41;;;;;;;40.13;29.93;;;8.00;99.90;;;;;;5095325;28;20251;-72
2024/03/03 04:51:07;;;;;;;39.60;28.67;;;7.90;99.90;;;;;;5095122;28;20182;-72
2024/03/03 04:53:33;;;;;;;44.33;31.83;;;7.90;99.90;;;;;;5095223;28;20171;-72
2024/03/03 04:55:59;;;;;;;37.40;26.10;;;7.70;99.90;;;;;;5085002;28;20197;-72
2024/03/03 04:58:24;;;;;;;42.33;30.13;;;7.70;99.90;;;;;;5075057;28;20413;-72
2024/03/03 05:00:50;;;;;;;39.83;28.80;;;7.70;99.90;;;;;;5074872;28;20410;-72
2024/03/03 05:03:15;;;;;;;38.93;26.57;;;7.80;99.90;;;;;;5074803;28;20565;-72
2024/03/03 05:05:41;;;;;;;42.00;28.37;;;7.90;99.90;;;;;;5082129;28;20710;-72
2024/03/03 05:08:07;;;;;;;35.63;27.13;;;7.80;99.90;;;;;;5095233;28;20258;-72
2024/03/03 05:10:33;;;;;;;35.37;25.20;;;7.80;99.90;;;;;;5094880;28;20233;-71
2024/03/03 05:12:58;;;;;;;42.87;31.83;;;7.80;99.90;;;;;;5094997;28;20483;-71
2024/03/03 05:15:24;;;;;;;40.33;28.23;;;7.70;99.90;;;;;;5089780;28;20201;-71
2024/03/03 05:17:50;;;;;;;40.70;28.37;;;7.70;99.90;;;;;;5075011;28;20164;-72
2024/03/03 05:20:15;;;;;;;41.20;28.70;;;7.70;99.90;;;;;;5074934;28;20416;-71
2024/03/03 05:22:42;;;;;;;45.40;28.93;;;7.70;99.90;;;;;;5073188;28;20205;-72
2024/03/03 05:25:10;;;;;;;43.93;30.13;;;7.70;99.90;;;;;;5101620;23;20227;-69
2024/03/03 05:27:36;;;;;;;41.20;29.43;;;7.80;99.90;;;;;;5115638;28;20513;-69
2024/03/03 05:30:02;;;;;;;39.63;27.73;;;7.70;99.90;;;;;;5115330;28;20405;-69
2024/03/03 05:32:27;;;;;;;44.57;31.00;;;7.80;99.90;;;;;;5115229;28;20402;-69
2024/03/03 05:34:53;;;;;;;41.07;28.40;;;7.80;99.90;;;;;;5115142;28;20479;-69
2024/03/03 05:37:18;;;;;;;48.00;31.30;;;7.80;99.90;;;;;;5115520;28;20678;-69
2024/03/03 05:39:44;;;;;;;40.87;26.73;;;7.70;99.90;;;;;;5115430;28;20531;-70
2024/03/03 05:42:11;;;;;;;37.23;25.80;;;7.70;99.90;;;;;;5115021;28;20631;-69
2024/03/03 05:44:37;;;;;;;38.10;27.00;;;7.70;99.90;;;;;;5115014;28;20184;-69
2024/03/03 05:47:03;;;;;;;44.40;30.17;;;7.70;99.90;;;;;;5115116;28;20402;-70
2024/03/03 05:49:29;;;;;;;46.37;30.77;;;7.60;99.90;;;;;;5115313;28;20405;-69
2024/03/03 05:51:55;;;;;;;35.87;26.50;;;7.60;99.90;;;;;;5114585;28;20173;-69
2024/03/03 05:54:21;;;;;;;42.07;28.30;;;7.60;99.90;;;;;;5114435;28;20657;-69
2024/03/03 05:56:46;;;;;;;39.87;27.17;;;7.50;99.90;;;;;;5114677;28;20205;-69
2024/03/03 05:59:14;;;;;;;40.77;28.17;;;7.50;99.90;;;;;;5103056;28;20162;-69
2024/03/03 06:01:47;;;;;;;39.57;26.03;;;7.40;99.90;;;;;;5094425;28;20533;-70
2024/03/03 06:04:16;;;;;;;41.80;28.80;;;7.50;99.90;;;;;;5093441;28;20483;-70
2024/03/03 06:06:43;;;;;;;32.90;24.90;;;7.40;99.90;;;;;;5109295;28;20422;-70
2024/03/03 06:09:10;;;;;;;41.83;25.60;;;7.50;99.90;;;;;;5115128;28;20428;-70
2024/03/03 06:11:37;;;;;;;36.20;27.70;;;7.50;99.90;;;;;;5114760;28;20401;-69
2024/03/03 06:14:03;;;;;;;37.83;26.73;;;7.50;99.90;;;;;;5114503;28;20409;-69
2024/03/03 06:16:29;;;;;;;39.40;27.90;;;7.50;99.90;;;;;;5114254;28;21039;-70
2024/03/03 06:18:55;;;;;;;37.20;25.87;;;7.50;99.90;;;;;;5114998;28;20398;-70
2024/03/03 06:21:21;;;;;;;39.80;28.07;;;7.50;99.90;;;;;;5114456;28;20413;-70
2024/03/03 06:23:47;;;;;;;32.73;24.67;;;7.50;99.90;;;;;;5114605;28;20234;-70
2024/03/03 06:26:15;;;;;;;33.43;24.50;;;7.50;99.90;;;;;;5114032;28;20908;-70
2024/03/03 06:28:45;;;;;;;36.30;27.10;;;7.50;99.90;;;;;;5114206;28;20201;-70
2024/03/03 06:31:13;;;;;;;32.10;24.03;;;7.50;99.90;;;;;;5114127;28;20392;-70
2024/03/03 06:33:39;;;;;;;42.43;26.90;;;7.50;99.90;;;;;;5114395;28;20785;-70
2024/03/03 06:36:05;;;;;;;37.47;27.43;;;7.60;99.90;;;;;;5113865;28;20436;-70
2024/03/03 06:38:31;;;;;;;35.40;24.83;;;7.60;99.90;;;;;;5114099;28;20668;-70
2024/03/03 06:40:56;;;;;;;32.07;23.33;;;7.70;99.90;;;;;;5114050;28;20816;-70
2024/03/03 06:43:22;;;;;;;34.83;24.43;;;7.90;99.90;;;;;;5113994;28;20402;-70
2024/03/03 06:45:48;;;;;;;33.87;24.03;;;7.90;99.90;;;;;;5113867;28;20192;-70
2024/03/03 06:48:14;;;;;;;38.10;25.40;;;8.10;99.90;;;;;;5113732;28;20165;-70
2024/03/03 06:50:40;;;;;;;35.47;26.23;;;8.10;99.90;;;;;;5113739;28;20175;-70
2024/03/03 06:53:06;;;;;;;35.73;26.33;;;8.20;99.90;;;;;;5114299;28;20913;-70
2024/03/03 06:55:32;;;;;;;36.40;25.20;;;8.20;99.90;;;;;;5117908;28;20491;-69
2024/03/03 06:57:58;;;;;;;35.20;27.10;;;8.30;99.90;;;;;;5112582;28;20889;-69
2024/03/03 07:00:23;;;;;;;36.47;25.70;;;8.50;99.90;;;;;;5113833;28;20279;-69
2024/03/03 07:05:33;;;;;;;36.03;24.80;;;8.60;99.90;;;;;;5113893;28;20196;-70
2024/03/03 07:07:58;;;;;;;36.70;25.33;;;8.60;99.90;;;;;;5113656;28;20399;-69
2024/03/03 07:10:24;;;;;;;35.63;26.53;;;8.80;99.90;;;;;;5113668;28;20165;-70
2024/03/03 07:12:50;;;;;;;30.40;22.83;;;9.00;99.90;;;;;;5113884;28;20158;-70
2024/03/03 07:15:15;;;;;;;30.13;23.73;;;9.20;99.90;;;;;;5114474;28;20478;-70
2024/03/03 07:17:42;;;;;;;34.90;25.43;;;9.30;99.90;;;;;;5113929;28;20164;-70
2024/03/03 07:20:08;;;;;;;32.33;23.50;;;9.40;99.90;;;;;;5112815;28;20188;-70
2024/03/03 07:22:34;;;;;;;33.00;24.53;;;9.60;99.90;;;;;;5113828;28;20441;-70
2024/03/03 07:25:04;;;;;;;32.97;25.37;;;9.80;99.90;;;;;;5113500;28;20817;-70
2024/03/03 07:27:30;;;;;;;33.20;25.90;;;9.90;99.90;;;;;;5093657;28;20402;-70
2024/03/03 07:29:56;;;;;;;34.70;26.20;;;10.00;99.90;;;;;;5093629;28;20412;-70
2024/03/03 07:32:22;;;;;;;35.87;28.50;;;10.10;99.90;;;;;;5094012;28;20420;-70
2024/03/03 07:34:49;;;;;;;32.73;25.30;;;10.00;99.90;;;;;;5093422;28;20524;-69
2024/03/03 07:37:16;;;;;;;41.63;29.80;;;10.00;99.90;;;;;;5111334;28;20258;-69
2024/03/03 07:39:42;;;;;;;36.33;25.73;;;9.90;99.90;;;;;;5113637;28;20784;-69
2024/03/03 07:42:08;;;;;;;35.37;27.27;;;10.00;99.90;;;;;;5113319;28;20408;-69
2024/03/03 07:44:34;;;;;;;41.10;28.20;;;10.00;99.90;;;;;;5112961;28;20471;-69
2024/03/03 07:46:59;;;;;;;33.57;26.87;;;10.30;99.90;;;;;;5113033;28;20446;-69
2024/03/03 07:49:25;;;;;;;36.57;27.27;;;10.00;99.90;;;;;;5113363;28;20267;-69
2024/03/03 07:51:50;;;;;;;37.33;27.43;;;10.10;99.90;;;;;;5113146;28;20193;-69
2024/03/03 07:54:16;;;;;;;33.80;27.23;;;9.90;99.90;;;;;;5111770;28;20163;-68
2024/03/03 07:56:42;;;;;;;36.40;26.87;;;10.10;99.90;;;;;;5106264;28;20193;-69
2024/03/03 07:59:08;;;;;;;37.87;28.47;;;10.20;99.90;;;;;;5109732;28;20170;-69
2024/03/03 08:01:35;;;;;;;39.77;30.07;;;9.90;99.90;;;;;;5116738;28;20639;-69
2024/03/03 08:04:01;;;;;;;38.80;28.73;;;10.00;99.90;;;;;;5117240;28;20646;-69
2024/03/03 08:06:26;;;;;;;35.60;26.70;;;9.90;99.90;;;;;;5117178;28;20458;-69
2024/03/03 08:08:52;;;;;;;33.77;26.13;;;9.70;99.90;;;;;;5115931;28;20426;-69
2024/03/03 08:11:17;;;;;;;37.53;26.67;;;10.20;99.90;;;;;;5117018;28;20545;-69
2024/03/03 08:13:43;;;;;;;35.70;27.03;;;10.30;99.90;;;;;;5116786;28;20713;-69
2024/03/03 08:16:09;;;;;;;38.33;28.33;;;10.50;99.90;;;;;;5116692;28;20566;-70
2024/03/03 08:18:34;;;;;;;37.60;28.30;;;10.80;99.90;;;;;;5117011;28;20413;-69
2024/03/03 08:21:00;;;;;;;36.00;27.13;;;10.90;99.90;;;;;;5116651;28;20579;-69
2024/03/03 08:23:26;;;;;;;33.10;27.57;;;10.80;99.90;;;;;;5116670;28;20507;-69
2024/03/03 08:25:52;;;;;;;36.63;26.73;;;10.90;99.90;;;;;;5116359;27;20590;-70
2024/03/03 08:28:17;;;;;;;36.77;27.63;;;11.00;99.90;;;;;;5116527;28;20446;-70
2024/03/03 08:30:43;;;;;;;29.17;24.40;;;11.10;99.90;;;;;;5116503;28;20661;-68
2024/03/03 08:33:09;;;;;;;38.70;28.00;;;11.30;99.90;;;;;;5116390;28;20171;-70
2024/03/03 08:35:34;;;;;;;32.17;25.97;;;11.20;99.90;;;;;;5116342;28;20192;-69
2024/03/03 08:38:00;;;;;;;33.67;26.20;;;11.20;99.90;;;;;;5116394;28;20170;-69
2024/03/03 08:40:26;;;;;;;32.50;24.83;;;11.10;99.90;;;;;;5116278;28;20159;-69
2024/03/03 08:42:52;;;;;;;36.33;26.50;;;11.20;99.90;;;;;;5114970;28;20680;-69
2024/03/03 08:45:17;;;;;;;30.57;24.87;;;11.30;99.90;;;;;;5116076;28;20693;-69
2024/03/03 08:47:43;;;;;;;39.37;28.63;;;11.60;99.90;;;;;;5116061;28;20412;-69
2024/03/03 08:50:09;;;;;;;34.37;24.37;;;11.60;99.90;;;;;;5116914;28;20637;-69
2024/03/03 08:52:39;;;;;;;35.63;26.90;;;11.70;99.90;;;;;;5116306;28;20807;-69
2024/03/03 08:55:05;;;;;;;31.23;24.70;;;11.50;99.90;;;;;;5116016;28;20446;-69
2024/03/03 08:57:31;;;;;;;33.87;26.33;;;11.30;99.90;;;;;;5116309;28;20406;-69
2024/03/03 08:59:57;;;;;;;29.93;23.43;;;11.20;99.90;;;;;;5116096;28;20169;-69
2024/03/03 09:02:23;;;;;;;32.83;25.97;;;11.40;99.90;;;;;;5115801;28;20162;-68
2024/03/03 09:04:49;;;;;;;32.70;26.90;;;11.70;99.90;;;;;;5115608;28;21781;-68
2024/03/03 09:07:14;;;;;;;33.80;24.53;;;11.90;99.90;;;;;;5116011;28;20171;-69
2024/03/03 09:09:41;;;;;;;35.60;26.43;;;11.40;99.90;;;;;;5115541;28;20172;-69
2024/03/03 09:12:07;;;;;;;31.10;24.83;;;11.10;99.90;;;;;;5115549;28;20178;-68
2024/03/03 09:14:33;;;;;;;32.30;25.43;;;11.20;99.90;;;;;;5115665;28;20473;-69
2024/03/03 09:17:00;;;;;;;32.37;25.20;;;11.40;99.90;;;;;;5115895;28;20403;-70
2024/03/03 09:19:26;;;;;;;32.63;24.40;;;11.50;99.90;;;;;;5116095;28;20394;-70
2024/03/03 09:21:51;;;;;;;33.77;26.10;;;11.20;99.90;;;;;;5115704;28;20500;-69
2024/03/03 09:24:19;;;;;;;30.40;23.90;;;11.40;99.90;;;;;;5115472;28;20435;-68
2024/03/03 09:26:45;;;;;;;34.47;26.40;;;11.40;99.90;;;;;;5115303;28;20921;-69
2024/03/03 09:29:11;;;;;;;29.93;23.67;;;11.30;99.90;;;;;;5115607;28;20477;-69
2024/03/03 09:31:36;;;;;;;35.10;25.93;;;11.40;99.90;;;;;;5115257;28;20438;-69
2024/03/03 09:34:02;;;;;;;32.43;25.40;;;11.50;99.90;;;;;;5115160;28;20166;-69
2024/03/03 09:36:27;;;;;;;28.50;22.67;;;11.60;99.90;;;;;;5114970;28;20209;-68
2024/03/03 09:38:53;;;;;;;27.47;23.33;;;11.70;99.90;;;;;;5115123;28;20205;-68
2024/03/03 09:41:19;;;;;;;31.07;23.77;;;11.90;99.90;;;;;;5115113;28;20187;-68
2024/03/03 09:43:50;;;;;;;28.90;23.07;;;11.90;99.90;;;;;;5115012;28;20673;-68
2024/03/03 09:46:16;;;;;;;31.83;24.07;;;12.30;99.90;;;;;;5114757;28;20552;-69
2024/03/03 09:48:42;;;;;;;28.97;24.07;;;12.40;99.90;;;;;;5115078;28;20407;-69
2024/03/03 09:51:11;;;;;;;32.67;26.87;;;12.30;99.90;;;;;;5115092;28;20166;-69
2024/03/03 09:53:37;;;;;;;31.80;24.63;;;12.40;99.90;;;;;;5114835;28;20417;-69
2024/03/03 09:56:05;;;;;;;27.43;23.33;;;12.80;99.90;;;;;;5114848;28;20465;-69
2024/03/03 09:58:31;;;;;;;30.33;24.07;;;12.70;99.90;;;;;;5114864;28;20406;-69
2024/03/03 10:00:59;;;;;;;29.57;23.40;;;12.70;99.90;;;;;;5114918;28;20760;-68
2024/03/03 10:03:26;;;;;;;31.90;25.60;;;12.60;99.90;;;;;;5111052;28;20205;-68
2024/03/03 10:05:55;;;;;;;29.63;24.57;;;12.70;99.90;;;;;;5104810;28;20966;-70
2024/03/03 10:08:22;;;;;;;26.40;22.30;;;12.70;99.90;;;;;;5114801;28;20407;-69
2024/03/03 10:10:49;;;;;;;29.53;22.90;;;12.90;99.90;;;;;;5114731;28;20477;-69
2024/03/03 10:13:17;;;;;;;30.10;23.20;;;13.00;99.90;;;;;;5114722;27;20410;-69
2024/03/03 10:15:47;;;;;;;32.57;25.63;;;13.40;99.90;;;;;;5114422;28;20572;-69
2024/03/03 10:18:13;;;;;;;26.70;22.10;;;13.30;99.90;;;;;;5114690;28;20491;-69
2024/03/03 10:20:38;;;;;;;26.53;22.20;;;13.70;99.90;;;;;;5114401;28;20479;-69
2024/03/03 10:23:05;;;;;;;29.33;24.23;;;13.80;99.90;;;;;;5114066;28;20811;-69
2024/03/03 10:25:31;;;;;;;25.00;20.87;;;13.60;99.90;;;;;;5114108;28;20630;-69
2024/03/03 10:28:12;;;;;;;24.07;21.47;;;13.60;99.90;;;;;;5114192;28;20459;-69
2024/03/03 10:30:39;;;;;;;25.10;21.80;;;13.50;99.90;;;;;;5114237;28;20410;-69
2024/03/03 10:33:05;;;;;;;29.30;23.07;;;13.70;99.90;;;;;;5114347;28;20522;-69
2024/03/03 10:35:31;;;;;;;25.70;20.50;;;13.90;99.90;;;;;;5114057;28;20793;-69
2024/03/03 10:38:01;;;;;;;26.10;20.50;;;14.40;99.90;;;;;;5114013;28;20458;-69
2024/03/03 10:40:28;;;;;;;24.57;19.70;;;14.20;99.90;;;;;;5114348;28;20158;-69
2024/03/03 10:42:54;;;;;;;23.80;20.80;;;14.20;99.90;;;;;;5113886;28;20477;-69
2024/03/03 10:45:20;;;;;;;21.50;19.30;;;14.50;99.90;;;;;;5113958;28;20972;-69
2024/03/03 10:47:48;;;;;;;26.07;20.17;;;14.00;99.90;;;;;;5113856;28;20421;-68
2024/03/03 10:50:19;;;;;;;23.27;19.57;;;14.00;99.90;;;;;;5113775;28;20172;-70
2024/03/03 10:52:45;;;;;;;24.30;20.13;;;13.90;99.90;;;;;;5113976;28;20902;-70
2024/03/03 10:55:13;;;;;;;21.87;18.20;;;14.10;99.90;;;;;;5114222;28;20454;-70
2024/03/03 10:57:39;;;;;;;25.13;18.90;;;14.30;99.90;;;;;;5114473;28;20444;-69
2024/03/03 11:00:14;;;;;;;24.43;19.53;;;14.60;99.90;;;;;;5114745;28;20397;-69
2024/03/03 11:02:42;;;;;;;22.33;19.83;;;14.60;99.90;;;;;;5113683;28;20884;-70
2024/03/03 11:05:11;;;;;;;22.47;18.50;;;14.80;99.90;;;;;;5113668;28;20524;-70
2024/03/03 11:07:38;;;;;;;22.50;18.23;;;15.00;99.90;;;;;;5113693;28;20405;-69
2024/03/03 11:10:04;;;;;;;20.80;17.50;;;15.40;99.90;;;;;;5114072;28;20455;-69
2024/03/03 11:12:34;;;;;;;19.87;17.23;;;15.50;99.90;;;;;;5113440;28;20493;-69
2024/03/03 11:15:04;;;;;;;22.27;18.50;;;15.60;99.90;;;;;;5113245;28;20446;-69
2024/03/03 11:17:32;;;;;;;18.97;16.70;;;16.00;99.90;;;;;;5114145;28;20850;-69
2024/03/03 11:20:00;;;;;;;20.50;17.27;;;16.00;99.90;;;;;;5113440;28;20411;-70
2024/03/03 11:22:34;;;;;;;20.10;17.10;;;16.30;99.90;;;;;;5114128;28;20407;-69
2024/03/03 11:25:04;;;;;;;18.27;15.97;;;15.70;99.90;;;;;;5124045;22;20438;-72
2024/03/03 11:27:29;;;;;;;17.27;15.47;;;15.90;99.90;;;;;;5091380;28;20441;-71
2024/03/03 11:29:56;;;;;;;18.30;16.37;;;16.30;99.90;;;;;;5092597;28;20392;-71
2024/03/03 11:32:27;;;;;;;18.80;16.20;;;16.20;99.90;;;;;;5092433;28;20925;-70
2024/03/03 11:34:55;;;;;;;17.50;15.43;;;15.90;99.90;;;;;;5096206;28;20371;-70
2024/03/03 11:37:21;;;;;;;16.40;14.47;;;16.30;99.90;;;;;;5096917;28;20403;-71
2024/03/03 11:39:53;;;;;;;16.13;14.53;;;17.00;99.90;;;;;;5096680;28;20442;-70
2024/03/03 11:42:33;;;;;;;16.23;13.97;;;17.20;99.90;;;;;;5078951;28;20412;-71
2024/03/03 11:45:00;;;;;;;15.27;13.67;;;17.00;99.90;;;;;;5096111;28;20746;-72
2024/03/03 11:47:47;;;;;;;16.90;13.37;;;16.60;99.90;;;;;;5096101;28;20415;-70
2024/03/03 11:50:20;;;;;;;18.93;12.90;;;16.70;99.90;;;;;;5096582;28;20391;-72
2024/03/03 11:52:46;;;;;;;21.40;16.10;;;17.00;99.90;;;;;;5096073;28;20418;-71
2024/03/03 11:55:24;;;;;;;16.60;14.30;;;16.50;99.90;;;;;;5095542;28;20879;-71
2024/03/03 11:57:50;;;;;;;15.03;13.27;;;16.90;99.90;;;;;;5096196;28;20775;-70
2024/03/03 12:00:18;;;;;;;14.27;12.87;;;17.90;99.90;;;;;;5096210;28;20777;-71
2024/03/03 12:02:45;;;;;;;13.20;11.90;;;19.00;99.00;;;;;;5096202;28;20410;-71
2024/03/03 12:05:13;;;;;;;14.53;12.70;;;19.90;96.80;;;;;;5095801;28;20521;-70
2024/03/03 12:07:42;;;;;;;13.00;11.63;;;19.60;96.70;;;;;;5095976;28;20407;-71
2024/03/03 12:10:18;;;;;;;12.00;10.90;;;20.10;95.90;;;;;;5095521;28;20426;-71
2024/03/03 12:12:55;;;;;;;26.40;19.40;;;20.20;94.40;;;;;;5095481;28;20413;-70
2024/03/03 12:15:23;;;;;;;11.33;10.20;;;20.60;94.30;;;;;;5093822;28;20508;-71
2024/03/03 12:17:53;;;;;;;11.87;10.20;;;22.10;92.80;;;;;;5095776;28;20909;-72
2024/03/03 12:20:24;;;;;;;11.60;10.43;;;23.30;89.40;;;;;;5095757;28;20828;-71
2024/03/03 12:22:50;;;;;;;11.20;10.10;;;23.40;88.90;;;;;;5096095;28;20384;-72
2024/03/03 12:25:18;;;;;;;11.43;10.30;;;23.00;86.80;;;;;;5095802;28;20462;-72
2024/03/03 12:27:52;;;;;;;12.47;11.20;;;21.70;86.90;;;;;;5096253;28;20392;-72
2024/03/03 12:30:37;;;;;;;13.37;11.37;;;21.70;87.90;;;;;;5095806;28;20394;-72
2024/03/03 12:33:05;;;;;;;14.87;11.87;;;21.40;87.90;;;;;;5095495;28;20451;-71